sensor_id;sensor_type;location;lat;lon;timestamp;P1;durP1;ratioP1;P2;durP2;ratioP2
36449;SDS011;22475;51.390;7.180;2024-02-26T00:00:02;3.63;;;0.80;;
36449;SDS011;22475;51.390;7.180;2024-02-26T00:02:35;1.08;;;0.80;;
36449;SDS011;22475;51.390;7.180;2024-02-26T00:05:03;1.02;;;0.85;;
36449;SDS011;22475;51.390;7.180;2024-02-26T00:07:31;1.30;;;0.82;;
36449;SDS011;22475;51.390;7.180;2024-02-26T00:09:58;6.50;;;1.58;;
36449;SDS011;22475;51.390;7.180;2024-02-26T00:12:24;1.38;;;1.20;;
36449;SDS011;22475;51.390;7.180;2024-02-26T00:14:51;2.13;;;0.85;;
36449;SDS011;22475;51.390;7.180;2024-02-26T00:17:19;0.70;;;0.70;;
36449;SDS011;22475;51.390;7.180;2024-02-26T00:19:47;2.70;;;1.25;;
36449;SDS011;22475;51.390;7.180;2024-02-26T00:22:13;2.08;;;1.10;;
36449;SDS011;22475;51.390;7.180;2024-02-26T00:24:40;2.58;;;1.90;;
36449;SDS011;22475;51.390;7.180;2024-02-26T00:27:07;0.95;;;0.93;;
36449;SDS011;22475;51.390;7.180;2024-02-26T00:29:34;2.28;;;1.45;;
36449;SDS011;22475;51.390;7.180;2024-02-26T00:32:00;2.88;;;1.35;;
36449;SDS011;22475;51.390;7.180;2024-02-26T00:34:27;4.03;;;1.05;;
36449;SDS011;22475;51.390;7.180;2024-02-26T00:36:55;1.63;;;1.17;;
36449;SDS011;22475;51.390;7.180;2024-02-26T00:39:22;1.80;;;1.23;;
36449;SDS011;22475;51.390;7.180;2024-02-26T00:41:48;2.83;;;1.80;;
36449;SDS011;22475;51.390;7.180;2024-02-26T00:44:16;1.08;;;0.98;;
36449;SDS011;22475;51.390;7.180;2024-02-26T00:46:43;5.90;;;1.90;;
36449;SDS011;22475;51.390;7.180;2024-02-26T00:49:10;3.03;;;1.98;;
36449;SDS011;22475;51.390;7.180;2024-02-26T00:51:36;7.97;;;2.38;;
36449;SDS011;22475;51.390;7.180;2024-02-26T00:54:05;3.15;;;1.65;;
36449;SDS011;22475;51.390;7.180;2024-02-26T00:56:31;5.15;;;1.30;;
36449;SDS011;22475;51.390;7.180;2024-02-26T00:58:58;1.60;;;1.15;;
36449;SDS011;22475;51.390;7.180;2024-02-26T01:01:25;6.43;;;1.67;;
36449;SDS011;22475;51.390;7.180;2024-02-26T01:03:52;3.17;;;1.13;;
36449;SDS011;22475;51.390;7.180;2024-02-26T01:06:18;8.13;;;1.38;;
36449;SDS011;22475;51.390;7.180;2024-02-26T01:08:47;4.55;;;1.02;;
36449;SDS011;22475;51.390;7.180;2024-02-26T01:11:15;5.55;;;1.38;;
36449;SDS011;22475;51.390;7.180;2024-02-26T01:13:42;5.93;;;1.00;;
36449;SDS011;22475;51.390;7.180;2024-02-26T01:16:08;1.70;;;1.42;;
36449;SDS011;22475;51.390;7.180;2024-02-26T01:18:35;1.50;;;0.98;;
36449;SDS011;22475;51.390;7.180;2024-02-26T01:21:02;1.42;;;1.10;;
36449;SDS011;22475;51.390;7.180;2024-02-26T01:23:31;2.95;;;1.45;;
36449;SDS011;22475;51.390;7.180;2024-02-26T01:25:58;3.63;;;1.00;;
36449;SDS011;22475;51.390;7.180;2024-02-26T01:28:26;0.88;;;0.80;;
36449;SDS011;22475;51.390;7.180;2024-02-26T01:30:53;1.58;;;1.02;;
36449;SDS011;22475;51.390;7.180;2024-02-26T01:33:20;3.05;;;1.05;;
36449;SDS011;22475;51.390;7.180;2024-02-26T01:35:47;4.80;;;0.95;;
36449;SDS011;22475;51.390;7.180;2024-02-26T01:38:14;3.88;;;0.90;;
36449;SDS011;22475;51.390;7.180;2024-02-26T01:40:41;1.80;;;1.00;;
36449;SDS011;22475;51.390;7.180;2024-02-26T01:43:07;1.65;;;0.70;;
36449;SDS011;22475;51.390;7.180;2024-02-26T01:45:36;3.70;;;0.90;;
36449;SDS011;22475;51.390;7.180;2024-02-26T01:48:02;3.83;;;1.13;;
36449;SDS011;22475;51.390;7.180;2024-02-26T01:50:29;1.05;;;0.88;;
36449;SDS011;22475;51.390;7.180;2024-02-26T01:52:56;2.90;;;1.08;;
36449;SDS011;22475;51.390;7.180;2024-02-26T01:55:24;0.82;;;0.57;;
36449;SDS011;22475;51.390;7.180;2024-02-26T01:57:52;1.15;;;0.90;;
36449;SDS011;22475;51.390;7.180;2024-02-26T02:00:19;1.70;;;0.88;;
36449;SDS011;22475;51.390;7.180;2024-02-26T02:02:49;0.93;;;0.40;;
36449;SDS011;22475;51.390;7.180;2024-02-26T02:05:17;3.65;;;0.82;;
36449;SDS011;22475;51.390;7.180;2024-02-26T02:07:46;2.03;;;0.95;;
36449;SDS011;22475;51.390;7.180;2024-02-26T02:10:13;0.75;;;0.63;;
36449;SDS011;22475;51.390;7.180;2024-02-26T02:12:41;4.63;;;0.75;;
36449;SDS011;22475;51.390;7.180;2024-02-26T02:15:08;3.88;;;1.02;;
36449;SDS011;22475;51.390;7.180;2024-02-26T02:17:35;2.28;;;1.10;;
36449;SDS011;22475;51.390;7.180;2024-02-26T02:20:03;0.95;;;0.85;;
36449;SDS011;22475;51.390;7.180;2024-02-26T02:22:36;3.00;;;1.10;;
36449;SDS011;22475;51.390;7.180;2024-02-26T02:25:03;2.03;;;0.85;;
36449;SDS011;22475;51.390;7.180;2024-02-26T02:27:31;0.63;;;0.60;;
36449;SDS011;22475;51.390;7.180;2024-02-26T02:29:58;0.70;;;0.70;;
36449;SDS011;22475;51.390;7.180;2024-02-26T02:32:25;0.57;;;0.57;;
36449;SDS011;22475;51.390;7.180;2024-02-26T02:34:52;1.25;;;0.95;;
36449;SDS011;22475;51.390;7.180;2024-02-26T02:37:19;0.65;;;0.60;;
36449;SDS011;22475;51.390;7.180;2024-02-26T02:39:47;0.60;;;0.60;;
36449;SDS011;22475;51.390;7.180;2024-02-26T02:42:14;0.90;;;0.50;;
36449;SDS011;22475;51.390;7.180;2024-02-26T02:44:41;0.85;;;0.52;;
36449;SDS011;22475;51.390;7.180;2024-02-26T02:47:09;0.63;;;0.63;;
36449;SDS011;22475;51.390;7.180;2024-02-26T02:49:36;2.80;;;0.50;;
36449;SDS011;22475;51.390;7.180;2024-02-26T02:52:03;0.68;;;0.68;;
36449;SDS011;22475;51.390;7.180;2024-02-26T02:54:30;0.50;;;0.50;;
36449;SDS011;22475;51.390;7.180;2024-02-26T02:56:59;0.65;;;0.45;;
36449;SDS011;22475;51.390;7.180;2024-02-26T02:59:25;1.40;;;1.30;;
36449;SDS011;22475;51.390;7.180;2024-02-26T03:01:53;2.25;;;0.75;;
36449;SDS011;22475;51.390;7.180;2024-02-26T03:04:19;3.47;;;0.98;;
36449;SDS011;22475;51.390;7.180;2024-02-26T03:06:46;0.95;;;0.88;;
36449;SDS011;22475;51.390;7.180;2024-02-26T03:09:13;3.08;;;0.63;;
36449;SDS011;22475;51.390;7.180;2024-02-26T03:11:39;0.80;;;0.70;;
36449;SDS011;22475;51.390;7.180;2024-02-26T03:14:09;0.57;;;0.55;;
36449;SDS011;22475;51.390;7.180;2024-02-26T03:16:35;2.88;;;0.82;;
36449;SDS011;22475;51.390;7.180;2024-02-26T03:19:02;1.33;;;0.90;;
36449;SDS011;22475;51.390;7.180;2024-02-26T03:21:29;0.68;;;0.68;;
36449;SDS011;22475;51.390;7.180;2024-02-26T03:23:56;0.93;;;0.47;;
36449;SDS011;22475;51.390;7.180;2024-02-26T03:26:23;0.85;;;0.77;;
36449;SDS011;22475;51.390;7.180;2024-02-26T03:28:50;2.47;;;1.05;;
36449;SDS011;22475;51.390;7.180;2024-02-26T03:31:18;1.35;;;1.05;;
36449;SDS011;22475;51.390;7.180;2024-02-26T03:33:44;4.55;;;0.63;;
36449;SDS011;22475;51.390;7.180;2024-02-26T03:36:11;4.93;;;1.10;;
36449;SDS011;22475;51.390;7.180;2024-02-26T03:38:38;3.38;;;0.90;;
36449;SDS011;22475;51.390;7.180;2024-02-26T03:41:05;0.80;;;0.75;;
36449;SDS011;22475;51.390;7.180;2024-02-26T03:43:33;2.40;;;0.77;;
36449;SDS011;22475;51.390;7.180;2024-02-26T03:46:00;1.88;;;1.17;;
36449;SDS011;22475;51.390;7.180;2024-02-26T03:48:28;1.77;;;1.35;;
36449;SDS011;22475;51.390;7.180;2024-02-26T03:50:55;2.28;;;1.30;;
36449;SDS011;22475;51.390;7.180;2024-02-26T03:53:22;2.28;;;0.90;;
36449;SDS011;22475;51.390;7.180;2024-02-26T03:55:48;2.45;;;1.00;;
36449;SDS011;22475;51.390;7.180;2024-02-26T03:58:17;2.97;;;0.90;;
36449;SDS011;22475;51.390;7.180;2024-02-26T04:00:43;2.70;;;1.00;;
36449;SDS011;22475;51.390;7.180;2024-02-26T04:03:12;1.48;;;1.10;;
36449;SDS011;22475;51.390;7.180;2024-02-26T04:05:40;1.10;;;1.00;;
36449;SDS011;22475;51.390;7.180;2024-02-26T04:08:07;1.10;;;0.60;;
36449;SDS011;22475;51.390;7.180;2024-02-26T04:10:35;1.25;;;1.00;;
36449;SDS011;22475;51.390;7.180;2024-02-26T04:13:03;3.00;;;1.33;;
36449;SDS011;22475;51.390;7.180;2024-02-26T04:15:30;2.47;;;1.00;;
36449;SDS011;22475;51.390;7.180;2024-02-26T04:17:57;3.50;;;0.80;;
36449;SDS011;22475;51.390;7.180;2024-02-26T04:20:24;0.95;;;0.90;;
36449;SDS011;22475;51.390;7.180;2024-02-26T04:22:52;5.05;;;1.17;;
36449;SDS011;22475;51.390;7.180;2024-02-26T04:25:18;2.95;;;0.98;;
36449;SDS011;22475;51.390;7.180;2024-02-26T04:27:45;1.33;;;1.10;;
36449;SDS011;22475;51.390;7.180;2024-02-26T04:30:12;2.65;;;1.00;;
36449;SDS011;22475;51.390;7.180;2024-02-26T04:32:39;2.50;;;1.02;;
36449;SDS011;22475;51.390;7.180;2024-02-26T04:35:06;1.70;;;1.00;;
36449;SDS011;22475;51.390;7.180;2024-02-26T04:37:33;0.77;;;0.70;;
36449;SDS011;22475;51.390;7.180;2024-02-26T04:40:01;4.60;;;0.85;;
36449;SDS011;22475;51.390;7.180;2024-02-26T04:42:29;4.50;;;1.00;;
36449;SDS011;22475;51.390;7.180;2024-02-26T04:44:56;0.95;;;0.80;;
36449;SDS011;22475;51.390;7.180;2024-02-26T04:47:23;1.27;;;0.55;;
36449;SDS011;22475;51.390;7.180;2024-02-26T04:49:50;2.95;;;0.93;;
36449;SDS011;22475;51.390;7.180;2024-02-26T04:52:17;1.55;;;0.70;;
36449;SDS011;22475;51.390;7.180;2024-02-26T04:54:44;0.70;;;0.70;;
36449;SDS011;22475;51.390;7.180;2024-02-26T04:57:12;6.95;;;1.10;;
36449;SDS011;22475;51.390;7.180;2024-02-26T04:59:39;1.70;;;1.08;;
36449;SDS011;22475;51.390;7.180;2024-02-26T05:02:07;2.40;;;1.23;;
36449;SDS011;22475;51.390;7.180;2024-02-26T05:04:34;6.03;;;1.42;;
36449;SDS011;22475;51.390;7.180;2024-02-26T05:07:01;2.72;;;1.35;;
36449;SDS011;22475;51.390;7.180;2024-02-26T05:09:28;1.92;;;1.35;;
36449;SDS011;22475;51.390;7.180;2024-02-26T05:11:55;1.55;;;1.15;;
36449;SDS011;22475;51.390;7.180;2024-02-26T05:14:23;2.00;;;0.90;;
36449;SDS011;22475;51.390;7.180;2024-02-26T05:16:50;4.07;;;1.15;;
36449;SDS011;22475;51.390;7.180;2024-02-26T05:19:16;1.20;;;0.90;;
36449;SDS011;22475;51.390;7.180;2024-02-26T05:21:43;4.90;;;3.40;;
36449;SDS011;22475;51.390;7.180;2024-02-26T05:24:12;1.58;;;0.85;;
36449;SDS011;22475;51.390;7.180;2024-02-26T05:26:40;0.68;;;0.68;;
36449;SDS011;22475;51.390;7.180;2024-02-26T05:29:07;1.65;;;1.10;;
36449;SDS011;22475;51.390;7.180;2024-02-26T05:31:35;0.60;;;0.60;;
36449;SDS011;22475;51.390;7.180;2024-02-26T05:34:02;3.60;;;0.90;;
36449;SDS011;22475;51.390;7.180;2024-02-26T05:36:28;3.53;;;1.50;;
36449;SDS011;22475;51.390;7.180;2024-02-26T05:38:58;1.90;;;1.02;;
36449;SDS011;22475;51.390;7.180;2024-02-26T05:41:25;1.30;;;1.20;;
36449;SDS011;22475;51.390;7.180;2024-02-26T05:43:52;3.40;;;1.00;;
36449;SDS011;22475;51.390;7.180;2024-02-26T05:46:18;0.90;;;0.73;;
36449;SDS011;22475;51.390;7.180;2024-02-26T05:48:48;1.40;;;1.23;;
36449;SDS011;22475;51.390;7.180;2024-02-26T05:51:15;8.60;;;1.42;;
36449;SDS011;22475;51.390;7.180;2024-02-26T05:53:42;1.95;;;1.25;;
36449;SDS011;22475;51.390;7.180;2024-02-26T05:56:09;1.48;;;1.35;;
36449;SDS011;22475;51.390;7.180;2024-02-26T05:58:36;3.13;;;1.42;;
36449;SDS011;22475;51.390;7.180;2024-02-26T06:01:03;1.50;;;1.13;;
36449;SDS011;22475;51.390;7.180;2024-02-26T06:03:29;3.70;;;1.10;;
36449;SDS011;22475;51.390;7.180;2024-02-26T06:05:57;6.82;;;0.93;;
36449;SDS011;22475;51.390;7.180;2024-02-26T06:08:24;3.60;;;1.08;;
36449;SDS011;22475;51.390;7.180;2024-02-26T06:10:51;1.92;;;1.25;;
36449;SDS011;22475;51.390;7.180;2024-02-26T06:13:18;1.45;;;1.30;;
36449;SDS011;22475;51.390;7.180;2024-02-26T06:15:44;1.48;;;1.38;;
36449;SDS011;22475;51.390;7.180;2024-02-26T06:18:11;5.55;;;1.05;;
36449;SDS011;22475;51.390;7.180;2024-02-26T06:20:38;1.80;;;1.10;;
36449;SDS011;22475;51.390;7.180;2024-02-26T06:23:06;3.28;;;1.30;;
36449;SDS011;22475;51.390;7.180;2024-02-26T06:25:33;3.65;;;1.45;;
36449;SDS011;22475;51.390;7.180;2024-02-26T06:28:00;2.38;;;0.93;;
36449;SDS011;22475;51.390;7.180;2024-02-26T06:30:26;2.22;;;1.00;;
36449;SDS011;22475;51.390;7.180;2024-02-26T06:32:53;1.55;;;1.27;;
36449;SDS011;22475;51.390;7.180;2024-02-26T06:35:20;3.10;;;1.60;;
36449;SDS011;22475;51.390;7.180;2024-02-26T06:37:47;7.15;;;2.00;;
36449;SDS011;22475;51.390;7.180;2024-02-26T06:40:17;4.32;;;1.48;;
36449;SDS011;22475;51.390;7.180;2024-02-26T06:42:43;1.90;;;1.33;;
36449;SDS011;22475;51.390;7.180;2024-02-26T06:45:10;5.25;;;1.73;;
36449;SDS011;22475;51.390;7.180;2024-02-26T06:47:37;5.78;;;1.92;;
36449;SDS011;22475;51.390;7.180;2024-02-26T06:50:04;4.18;;;1.60;;
36449;SDS011;22475;51.390;7.180;2024-02-26T06:52:31;4.15;;;1.40;;
36449;SDS011;22475;51.390;7.180;2024-02-26T06:54:58;1.23;;;1.13;;
36449;SDS011;22475;51.390;7.180;2024-02-26T06:57:26;3.53;;;1.10;;
36449;SDS011;22475;51.390;7.180;2024-02-26T06:59:52;9.00;;;1.45;;
36449;SDS011;22475;51.390;7.180;2024-02-26T07:02:19;1.52;;;1.30;;
36449;SDS011;22475;51.390;7.180;2024-02-26T07:04:46;1.33;;;0.93;;
36449;SDS011;22475;51.390;7.180;2024-02-26T07:07:12;1.67;;;1.58;;
36449;SDS011;22475;51.390;7.180;2024-02-26T07:09:41;1.30;;;1.20;;
36449;SDS011;22475;51.390;7.180;2024-02-26T07:12:08;1.75;;;1.23;;
36449;SDS011;22475;51.390;7.180;2024-02-26T07:14:36;5.55;;;1.20;;
36449;SDS011;22475;51.390;7.180;2024-02-26T07:17:03;1.73;;;1.00;;
36449;SDS011;22475;51.390;7.180;2024-02-26T07:19:30;1.52;;;1.17;;
36449;SDS011;22475;51.390;7.180;2024-02-26T07:21:57;1.75;;;1.65;;
36449;SDS011;22475;51.390;7.180;2024-02-26T07:24:23;2.63;;;1.10;;
36449;SDS011;22475;51.390;7.180;2024-02-26T07:26:50;2.08;;;1.00;;
36449;SDS011;22475;51.390;7.180;2024-02-26T07:29:19;2.05;;;1.08;;
36449;SDS011;22475;51.390;7.180;2024-02-26T07:31:47;1.17;;;0.90;;
36449;SDS011;22475;51.390;7.180;2024-02-26T07:34:14;1.95;;;1.00;;
36449;SDS011;22475;51.390;7.180;2024-02-26T07:36:41;3.70;;;1.30;;
36449;SDS011;22475;51.390;7.180;2024-02-26T07:39:07;0.98;;;0.70;;
36449;SDS011;22475;51.390;7.180;2024-02-26T07:41:34;2.22;;;1.10;;
36449;SDS011;22475;51.390;7.180;2024-02-26T07:44:03;1.92;;;1.70;;
36449;SDS011;22475;51.390;7.180;2024-02-26T07:46:30;3.55;;;2.70;;
36449;SDS011;22475;51.390;7.180;2024-02-26T07:48:58;4.80;;;3.15;;
36449;SDS011;22475;51.390;7.180;2024-02-26T07:51:25;4.75;;;2.63;;
36449;SDS011;22475;51.390;7.180;2024-02-26T07:53:51;2.40;;;1.98;;
36449;SDS011;22475;51.390;7.180;2024-02-26T07:56:19;1.42;;;1.30;;
36449;SDS011;22475;51.390;7.180;2024-02-26T07:58:45;15.43;;;1.65;;
36449;SDS011;22475;51.390;7.180;2024-02-26T08:01:12;1.55;;;1.45;;
36449;SDS011;22475;51.390;7.180;2024-02-26T08:03:40;7.40;;;1.40;;
36449;SDS011;22475;51.390;7.180;2024-02-26T08:06:09;1.23;;;1.10;;
36449;SDS011;22475;51.390;7.180;2024-02-26T08:08:35;2.20;;;1.40;;
36449;SDS011;22475;51.390;7.180;2024-02-26T08:11:02;2.20;;;2.00;;
36449;SDS011;22475;51.390;7.180;2024-02-26T08:13:29;1.50;;;1.23;;
36449;SDS011;22475;51.390;7.180;2024-02-26T08:15:56;1.73;;;1.25;;
36449;SDS011;22475;51.390;7.180;2024-02-26T08:18:24;6.10;;;1.52;;
36449;SDS011;22475;51.390;7.180;2024-02-26T08:20:50;5.18;;;2.60;;
36449;SDS011;22475;51.390;7.180;2024-02-26T08:23:18;7.45;;;1.55;;
36449;SDS011;22475;51.390;7.180;2024-02-26T08:25:45;1.95;;;1.83;;
36449;SDS011;22475;51.390;7.180;2024-02-26T08:28:12;2.50;;;1.40;;
36449;SDS011;22475;51.390;7.180;2024-02-26T08:30:39;7.00;;;1.90;;
36449;SDS011;22475;51.390;7.180;2024-02-26T08:33:06;3.63;;;1.65;;
36449;SDS011;22475;51.390;7.180;2024-02-26T08:35:33;2.75;;;1.50;;
36449;SDS011;22475;51.390;7.180;2024-02-26T08:38:00;2.30;;;1.58;;
36449;SDS011;22475;51.390;7.180;2024-02-26T08:40:28;2.85;;;1.90;;
36449;SDS011;22475;51.390;7.180;2024-02-26T08:42:55;4.60;;;2.50;;
36449;SDS011;22475;51.390;7.180;2024-02-26T08:45:22;3.95;;;2.42;;
36449;SDS011;22475;51.390;7.180;2024-02-26T08:47:49;2.42;;;1.70;;
36449;SDS011;22475;51.390;7.180;2024-02-26T08:50:16;3.83;;;2.40;;
36449;SDS011;22475;51.390;7.180;2024-02-26T08:52:43;3.75;;;2.88;;
36449;SDS011;22475;51.390;7.180;2024-02-26T08:55:13;4.50;;;3.72;;
36449;SDS011;22475;51.390;7.180;2024-02-26T08:57:41;2.83;;;2.28;;
36449;SDS011;22475;51.390;7.180;2024-02-26T09:00:08;3.63;;;1.83;;
36449;SDS011;22475;51.390;7.180;2024-02-26T09:02:36;2.17;;;1.88;;
36449;SDS011;22475;51.390;7.180;2024-02-26T09:05:04;7.13;;;2.90;;
36449;SDS011;22475;51.390;7.180;2024-02-26T09:07:31;1.95;;;1.33;;
36449;SDS011;22475;51.390;7.180;2024-02-26T09:09:58;8.52;;;2.05;;
36449;SDS011;22475;51.390;7.180;2024-02-26T09:12:25;2.70;;;1.55;;
36449;SDS011;22475;51.390;7.180;2024-02-26T09:14:53;2.80;;;1.48;;
36449;SDS011;22475;51.390;7.180;2024-02-26T09:17:21;1.73;;;1.63;;
36449;SDS011;22475;51.390;7.180;2024-02-26T09:19:48;1.40;;;1.30;;
36449;SDS011;22475;51.390;7.180;2024-02-26T09:22:14;5.72;;;1.77;;
36449;SDS011;22475;51.390;7.180;2024-02-26T09:24:41;2.90;;;1.98;;
36449;SDS011;22475;51.390;7.180;2024-02-26T09:27:08;1.92;;;1.60;;
36449;SDS011;22475;51.390;7.180;2024-02-26T09:29:35;2.85;;;2.25;;
36449;SDS011;22475;51.390;7.180;2024-02-26T09:32:03;2.85;;;1.75;;
36449;SDS011;22475;51.390;7.180;2024-02-26T09:34:30;1.77;;;1.65;;
36449;SDS011;22475;51.390;7.180;2024-02-26T09:36:58;5.53;;;3.33;;
36449;SDS011;22475;51.390;7.180;2024-02-26T09:39:25;3.47;;;2.00;;
36449;SDS011;22475;51.390;7.180;2024-02-26T09:41:52;3.88;;;2.28;;
36449;SDS011;22475;51.390;7.180;2024-02-26T09:44:19;2.13;;;1.83;;
36449;SDS011;22475;51.390;7.180;2024-02-26T09:46:47;6.72;;;1.88;;
36449;SDS011;22475;51.390;7.180;2024-02-26T09:49:16;4.15;;;2.53;;
36449;SDS011;22475;51.390;7.180;2024-02-26T09:51:44;2.63;;;2.03;;
36449;SDS011;22475;51.390;7.180;2024-02-26T09:54:13;3.58;;;1.35;;
36449;SDS011;22475;51.390;7.180;2024-02-26T09:56:41;3.00;;;1.77;;
36449;SDS011;22475;51.390;7.180;2024-02-26T09:59:10;8.82;;;1.60;;
36449;SDS011;22475;51.390;7.180;2024-02-26T10:01:39;4.00;;;2.15;;
36449;SDS011;22475;51.390;7.180;2024-02-26T10:04:10;6.53;;;2.47;;
36449;SDS011;22475;51.390;7.180;2024-02-26T10:06:39;1.70;;;1.52;;
36449;SDS011;22475;51.390;7.180;2024-02-26T10:11:36;5.53;;;1.70;;
36449;SDS011;22475;51.390;7.180;2024-02-26T10:14:04;3.13;;;2.45;;
36449;SDS011;22475;51.390;7.180;2024-02-26T10:16:31;13.02;;;2.20;;
36449;SDS011;22475;51.390;7.180;2024-02-26T10:18:59;3.08;;;2.10;;
36449;SDS011;22475;51.390;7.180;2024-02-26T10:21:26;5.88;;;2.20;;
36449;SDS011;22475;51.390;7.180;2024-02-26T10:23:54;3.67;;;1.98;;
36449;SDS011;22475;51.390;7.180;2024-02-26T10:26:21;2.17;;;1.75;;
36449;SDS011;22475;51.390;7.180;2024-02-26T10:28:48;6.00;;;2.50;;
36449;SDS011;22475;51.390;7.180;2024-02-26T10:31:15;2.78;;;1.92;;
36449;SDS011;22475;51.390;7.180;2024-02-26T10:33:42;6.25;;;3.67;;
36449;SDS011;22475;51.390;7.180;2024-02-26T10:36:09;4.90;;;2.13;;
36449;SDS011;22475;51.390;7.180;2024-02-26T10:38:37;4.15;;;2.67;;
36449;SDS011;22475;51.390;7.180;2024-02-26T10:41:05;3.70;;;2.50;;
36449;SDS011;22475;51.390;7.180;2024-02-26T10:43:33;2.47;;;1.90;;
36449;SDS011;22475;51.390;7.180;2024-02-26T10:46:00;3.75;;;2.00;;
36449;SDS011;22475;51.390;7.180;2024-02-26T10:48:26;4.70;;;1.65;;
36449;SDS011;22475;51.390;7.180;2024-02-26T10:50:53;9.05;;;2.65;;
36449;SDS011;22475;51.390;7.180;2024-02-26T10:53:22;3.90;;;2.53;;
36449;SDS011;22475;51.390;7.180;2024-02-26T10:55:52;2.50;;;2.30;;
36449;SDS011;22475;51.390;7.180;2024-02-26T10:58:22;2.88;;;2.28;;
36449;SDS011;22475;51.390;7.180;2024-02-26T11:00:50;5.60;;;2.78;;
36449;SDS011;22475;51.390;7.180;2024-02-26T11:03:18;8.07;;;2.63;;
36449;SDS011;22475;51.390;7.180;2024-02-26T11:05:47;6.10;;;3.78;;
36449;SDS011;22475;51.390;7.180;2024-02-26T11:08:14;5.35;;;3.70;;
36449;SDS011;22475;51.390;7.180;2024-02-26T11:10:44;9.93;;;5.43;;
36449;SDS011;22475;51.390;7.180;2024-02-26T11:13:14;12.80;;;4.75;;
36449;SDS011;22475;51.390;7.180;2024-02-26T11:15:43;8.57;;;4.97;;
36449;SDS011;22475;51.390;7.180;2024-02-26T11:18:12;8.55;;;4.53;;
36449;SDS011;22475;51.390;7.180;2024-02-26T11:20:40;11.05;;;4.32;;
36449;SDS011;22475;51.390;7.180;2024-02-26T11:23:08;7.80;;;3.35;;
36449;SDS011;22475;51.390;7.180;2024-02-26T11:25:35;6.50;;;3.17;;
36449;SDS011;22475;51.390;7.180;2024-02-26T11:28:05;5.88;;;3.60;;
36449;SDS011;22475;51.390;7.180;2024-02-26T11:30:35;3.58;;;3.17;;
36449;SDS011;22475;51.390;7.180;2024-02-26T11:33:07;9.88;;;3.10;;
36449;SDS011;22475;51.390;7.180;2024-02-26T11:35:36;5.70;;;4.22;;
36449;SDS011;22475;51.390;7.180;2024-02-26T11:38:03;3.85;;;3.45;;
36449;SDS011;22475;51.390;7.180;2024-02-26T11:40:31;4.63;;;3.70;;
36449;SDS011;22475;51.390;7.180;2024-02-26T11:42:58;5.60;;;3.65;;
36449;SDS011;22475;51.390;7.180;2024-02-26T11:48:16;5.68;;;3.55;;
36449;SDS011;22475;51.390;7.180;2024-02-26T11:50:47;4.70;;;3.88;;
36449;SDS011;22475;51.390;7.180;2024-02-26T11:53:21;8.02;;;5.10;;
36449;SDS011;22475;51.390;7.180;2024-02-26T11:58:38;8.70;;;4.95;;
36449;SDS011;22475;51.390;7.180;2024-02-26T12:01:05;6.63;;;3.63;;
36449;SDS011;22475;51.390;7.180;2024-02-26T12:03:33;7.72;;;3.83;;
36449;SDS011;22475;51.390;7.180;2024-02-26T12:06:01;5.60;;;4.75;;
36449;SDS011;22475;51.390;7.180;2024-02-26T12:08:28;8.13;;;4.57;;
36449;SDS011;22475;51.390;7.180;2024-02-26T12:10:55;9.40;;;4.20;;
36449;SDS011;22475;51.390;7.180;2024-02-26T12:13:25;8.70;;;4.35;;
36449;SDS011;22475;51.390;7.180;2024-02-26T12:15:56;7.68;;;3.53;;
36449;SDS011;22475;51.390;7.180;2024-02-26T12:18:24;3.03;;;2.72;;
36449;SDS011;22475;51.390;7.180;2024-02-26T12:20:59;4.57;;;3.42;;
36449;SDS011;22475;51.390;7.180;2024-02-26T12:23:26;3.72;;;3.42;;
36449;SDS011;22475;51.390;7.180;2024-02-26T12:25:53;3.95;;;3.13;;
36449;SDS011;22475;51.390;7.180;2024-02-26T12:28:27;3.85;;;3.13;;
36449;SDS011;22475;51.390;7.180;2024-02-26T12:30:53;8.80;;;3.20;;
36449;SDS011;22475;51.390;7.180;2024-02-26T12:33:20;5.15;;;3.45;;
36449;SDS011;22475;51.390;7.180;2024-02-26T12:35:47;5.93;;;3.80;;
36449;SDS011;22475;51.390;7.180;2024-02-26T12:38:17;5.88;;;3.85;;
36449;SDS011;22475;51.390;7.180;2024-02-26T12:40:44;3.85;;;3.50;;
36449;SDS011;22475;51.390;7.180;2024-02-26T12:43:13;5.78;;;3.88;;
36449;SDS011;22475;51.390;7.180;2024-02-26T12:45:41;4.18;;;3.58;;
36449;SDS011;22475;51.390;7.180;2024-02-26T12:48:10;5.20;;;4.10;;
36449;SDS011;22475;51.390;7.180;2024-02-26T12:50:38;6.03;;;4.72;;
36449;SDS011;22475;51.390;7.180;2024-02-26T12:53:05;4.82;;;3.42;;
36449;SDS011;22475;51.390;7.180;2024-02-26T12:55:33;4.90;;;4.05;;
36449;SDS011;22475;51.390;7.180;2024-02-26T12:58:04;16.33;;;3.42;;
36449;SDS011;22475;51.390;7.180;2024-02-26T13:00:31;4.57;;;4.18;;
36449;SDS011;22475;51.390;7.180;2024-02-26T13:02:59;6.78;;;4.47;;
36449;SDS011;22475;51.390;7.180;2024-02-26T13:05:26;6.45;;;3.92;;
36449;SDS011;22475;51.390;7.180;2024-02-26T13:07:53;4.07;;;3.78;;
36449;SDS011;22475;51.390;7.180;2024-02-26T13:10:20;7.28;;;3.72;;
36449;SDS011;22475;51.390;7.180;2024-02-26T13:12:48;6.15;;;3.65;;
36449;SDS011;22475;51.390;7.180;2024-02-26T13:15:16;8.98;;;4.68;;
36449;SDS011;22475;51.390;7.180;2024-02-26T13:17:44;5.40;;;3.67;;
36449;SDS011;22475;51.390;7.180;2024-02-26T13:20:10;5.80;;;3.55;;
36449;SDS011;22475;51.390;7.180;2024-02-26T13:22:38;7.95;;;3.78;;
36449;SDS011;22475;51.390;7.180;2024-02-26T13:25:05;4.07;;;3.67;;
36449;SDS011;22475;51.390;7.180;2024-02-26T13:27:33;7.50;;;3.85;;
36449;SDS011;22475;51.390;7.180;2024-02-26T13:30:05;7.93;;;4.18;;
36449;SDS011;22475;51.390;7.180;2024-02-26T13:32:36;6.28;;;3.38;;
36449;SDS011;22475;51.390;7.180;2024-02-26T13:35:04;4.22;;;3.40;;
36449;SDS011;22475;51.390;7.180;2024-02-26T13:37:32;8.68;;;3.85;;
36449;SDS011;22475;51.390;7.180;2024-02-26T13:39:59;3.80;;;3.40;;
36449;SDS011;22475;51.390;7.180;2024-02-26T13:42:29;4.40;;;3.95;;
36449;SDS011;22475;51.390;7.180;2024-02-26T13:44:56;3.80;;;3.10;;
36449;SDS011;22475;51.390;7.180;2024-02-26T13:47:24;4.85;;;3.88;;
36449;SDS011;22475;51.390;7.180;2024-02-26T13:49:50;8.23;;;3.47;;
36449;SDS011;22475;51.390;7.180;2024-02-26T13:52:17;7.00;;;3.70;;
36449;SDS011;22475;51.390;7.180;2024-02-26T13:54:45;5.47;;;4.03;;
36449;SDS011;22475;51.390;7.180;2024-02-26T13:57:12;4.32;;;3.58;;
36449;SDS011;22475;51.390;7.180;2024-02-26T13:59:38;5.85;;;3.28;;
36449;SDS011;22475;51.390;7.180;2024-02-26T14:02:07;3.72;;;3.10;;
36449;SDS011;22475;51.390;7.180;2024-02-26T14:04:35;4.32;;;2.75;;
36449;SDS011;22475;51.390;7.180;2024-02-26T14:07:02;6.72;;;3.03;;
36449;SDS011;22475;51.390;7.180;2024-02-26T14:09:29;3.05;;;2.78;;
36449;SDS011;22475;51.390;7.180;2024-02-26T14:11:57;5.95;;;2.53;;
36449;SDS011;22475;51.390;7.180;2024-02-26T14:14:23;4.78;;;3.42;;
36449;SDS011;22475;51.390;7.180;2024-02-26T14:16:51;5.75;;;3.13;;
36449;SDS011;22475;51.390;7.180;2024-02-26T14:19:18;4.38;;;3.25;;
36449;SDS011;22475;51.390;7.180;2024-02-26T14:21:46;5.70;;;2.97;;
36449;SDS011;22475;51.390;7.180;2024-02-26T14:24:13;3.88;;;3.30;;
36449;SDS011;22475;51.390;7.180;2024-02-26T14:26:40;5.22;;;3.47;;
36449;SDS011;22475;51.390;7.180;2024-02-26T14:29:06;5.70;;;3.88;;
36449;SDS011;22475;51.390;7.180;2024-02-26T14:31:33;2.95;;;2.53;;
36449;SDS011;22475;51.390;7.180;2024-02-26T14:34:00;4.57;;;3.22;;
36449;SDS011;22475;51.390;7.180;2024-02-26T14:36:27;6.60;;;3.67;;
36449;SDS011;22475;51.390;7.180;2024-02-26T14:38:55;5.28;;;3.35;;
36449;SDS011;22475;51.390;7.180;2024-02-26T14:41:22;3.90;;;3.10;;
36449;SDS011;22475;51.390;7.180;2024-02-26T14:43:49;4.45;;;2.97;;
36449;SDS011;22475;51.390;7.180;2024-02-26T14:46:15;6.10;;;3.33;;
36449;SDS011;22475;51.390;7.180;2024-02-26T14:48:42;7.22;;;3.33;;
36449;SDS011;22475;51.390;7.180;2024-02-26T14:51:09;6.78;;;4.55;;
36449;SDS011;22475;51.390;7.180;2024-02-26T14:53:36;6.18;;;3.50;;
36449;SDS011;22475;51.390;7.180;2024-02-26T14:56:04;3.78;;;2.92;;